createdAt,value
2023-01-22T00:01:38.700Z,2.67
2023-01-22T00:04:06.771Z,3.08
2023-01-22T00:06:36.326Z,4.45
2023-01-22T00:09:04.619Z,2.10
2023-01-22T00:11:32.560Z,2.20
2023-01-22T00:14:00.613Z,1.73
2023-01-22T00:16:28.602Z,2.83
2023-01-22T00:18:56.547Z,2.67
2023-01-22T00:21:24.736Z,2.92
2023-01-22T00:23:54.689Z,1.73
2023-01-22T00:26:23.531Z,2.00
2023-01-22T00:28:51.700Z,3.03
2023-01-22T00:31:20.121Z,2.03
2023-01-22T00:33:49.131Z,2.15
2023-01-22T00:36:19.071Z,2.38
2023-01-22T00:38:49.556Z,2.15
2023-01-22T00:41:20.722Z,1.80
2023-01-22T00:43:50.652Z,2.60
2023-01-22T00:46:20.805Z,2.47
2023-01-22T00:48:52.104Z,2.67
2023-01-22T00:51:20.525Z,3.47
2023-01-22T00:53:48.721Z,2.15
2023-01-22T00:56:19.102Z,2.38
2023-01-22T00:58:47.363Z,1.90
2023-01-22T01:01:16.124Z,1.90
2023-01-22T01:03:44.490Z,1.95
2023-01-22T01:06:15.196Z,2.90
2023-01-22T01:08:44.220Z,1.60
2023-01-22T01:11:16.959Z,1.75
2023-01-22T01:13:47.047Z,2.00
2023-01-22T01:16:17.767Z,1.85
2023-01-22T01:18:47.003Z,2.08
2023-01-22T01:21:15.401Z,2.50
2023-01-22T01:23:43.575Z,1.48
2023-01-22T01:26:13.277Z,2.00
2023-01-22T01:28:42.611Z,2.42
2023-01-22T01:31:14.259Z,2.28
2023-01-22T01:33:43.242Z,2.70
2023-01-22T01:36:13.677Z,2.83
2023-01-22T01:38:42.291Z,2.60
2023-01-22T01:41:13.233Z,1.40
2023-01-22T01:43:41.312Z,1.95
2023-01-22T01:46:19.209Z,2.60
2023-01-22T01:48:49.467Z,1.70
2023-01-22T01:51:23.607Z,3.05
2023-01-22T01:53:52.056Z,1.88
2023-01-22T01:56:23.959Z,1.60
2023-01-22T01:58:56.512Z,3.55
2023-01-22T02:01:26.536Z,1.15
2023-01-22T02:03:55.039Z,2.53
2023-01-22T02:06:22.869Z,2.58
2023-01-22T02:08:51.864Z,2.53
2023-01-22T02:11:20.579Z,2.67
2023-01-22T02:13:51.890Z,1.73
2023-01-22T02:16:21.008Z,2.58
2023-01-22T02:18:50.846Z,1.60
2023-01-22T02:21:44.297Z,2.22
2023-01-22T02:24:14.205Z,2.25
2023-01-22T02:26:43.256Z,3.53
2023-01-22T02:29:13.519Z,2.15
2023-01-22T02:31:42.720Z,2.85
2023-01-22T02:34:11.207Z,3.13
2023-01-22T02:36:40.519Z,1.88
2023-01-22T02:39:09.675Z,2.47
2023-01-22T02:41:38.960Z,3.30
2023-01-22T02:44:07.753Z,2.08
2023-01-22T02:46:35.720Z,3.53
2023-01-22T02:49:03.493Z,2.35
2023-01-22T02:51:33.380Z,2.00
2023-01-22T02:54:01.322Z,3.80
2023-01-22T02:56:30.629Z,1.92
2023-01-22T02:59:00.803Z,1.25
2023-01-22T03:01:28.753Z,1.88
2023-01-22T03:03:59.892Z,3.03
2023-01-22T03:06:29.928Z,2.10
2023-01-22T03:09:01.548Z,1.30
2023-01-22T03:11:37.060Z,1.10
2023-01-22T03:14:30.145Z,2.58
2023-01-22T03:17:17.044Z,2.70
2023-01-22T03:20:03.114Z,2.47
2023-01-22T03:22:31.304Z,2.73
2023-01-22T03:25:00.753Z,2.40
2023-01-22T03:27:32.085Z,1.98
2023-01-22T03:30:00.132Z,3.28
2023-01-22T03:32:32.093Z,1.20
2023-01-22T03:35:00.389Z,1.17
2023-01-22T03:37:33.533Z,1.33
2023-01-22T03:40:01.428Z,1.85
2023-01-22T03:42:37.845Z,1.45
2023-01-22T03:45:10.241Z,1.70
2023-01-22T03:47:39.069Z,3.33
2023-01-22T03:50:21.256Z,1.92
2023-01-22T03:52:49.142Z,1.30
2023-01-22T03:55:17.178Z,1.58
2023-01-22T03:57:46.845Z,1.77
2023-01-22T04:00:15.885Z,2.10
2023-01-22T04:02:44.173Z,1.60
2023-01-22T04:05:20.456Z,1.67
2023-01-22T04:07:50.552Z,2.90
2023-01-22T04:10:21.627Z,2.40
2023-01-22T04:12:52.662Z,6.18
2023-01-22T04:15:23.105Z,2.20
2023-01-22T04:17:52.096Z,12.93
2023-01-22T04:20:48.005Z,2.67
2023-01-22T04:23:22.265Z,5.13
2023-01-22T04:25:52.927Z,2.72
2023-01-22T04:28:22.616Z,3.85
2023-01-22T04:30:55.344Z,4.30
2023-01-22T04:33:34.645Z,8.48
2023-01-22T04:36:08.747Z,2.65
2023-01-22T04:38:36.746Z,4.13
2023-01-22T04:41:04.544Z,3.30
2023-01-22T04:43:34.240Z,2.55
2023-01-22T04:46:03.678Z,3.25
2023-01-22T04:48:33.282Z,2.30
2023-01-22T04:51:01.142Z,2.95
2023-01-22T04:53:31.347Z,2.42
2023-01-22T04:55:59.871Z,2.13
2023-01-22T04:58:28.485Z,1.20
2023-01-22T05:01:00.730Z,0.63
2023-01-22T05:03:29.304Z,0.80
2023-01-22T05:05:57.666Z,0.85
2023-01-22T05:08:25.663Z,0.77
2023-01-22T05:10:53.465Z,1.08
2023-01-22T05:13:26.800Z,1.17
2023-01-22T05:15:54.701Z,1.05
2023-01-22T05:18:25.884Z,0.73
2023-01-22T05:20:54.055Z,0.77
2023-01-22T05:23:24.373Z,1.40
2023-01-22T05:25:52.316Z,0.70
2023-01-22T05:28:28.329Z,0.63
2023-01-22T05:31:16.533Z,0.40
2023-01-22T05:34:06.938Z,0.82
2023-01-22T05:36:35.035Z,0.98
2023-01-22T05:39:24.141Z,0.40
2023-01-22T05:41:54.789Z,0.52
2023-01-22T05:44:22.997Z,0.45
2023-01-22T05:46:53.913Z,1.58
2023-01-22T05:49:36.739Z,0.50
2023-01-22T05:52:06.738Z,0.10
2023-01-22T05:54:35.355Z,0.63
2023-01-22T05:57:03.846Z,0.13
2023-01-22T05:59:31.899Z,0.75
2023-01-22T06:02:03.806Z,0.52
2023-01-22T06:04:33.262Z,0.17
2023-01-22T06:07:11.592Z,0.20
2023-01-22T06:09:39.630Z,1.25
2023-01-22T06:12:07.935Z,0.17
2023-01-22T06:14:35.874Z,0.25
2023-01-22T06:17:04.859Z,2.55
2023-01-22T06:19:38.479Z,0.70
2023-01-22T06:22:07.329Z,1.92
2023-01-22T06:24:47.425Z,0.32
2023-01-22T06:27:19.274Z,1.08
2023-01-22T06:30:00.615Z,0.30
2023-01-22T06:32:28.557Z,0.43
2023-01-22T06:34:56.478Z,0.43
2023-01-22T06:37:24.498Z,0.20
2023-01-22T06:39:55.195Z,0.65
2023-01-22T06:42:27.812Z,0.60
2023-01-22T06:44:57.379Z,0.30
2023-01-22T06:47:28.400Z,0.20
2023-01-22T06:49:56.444Z,0.40
2023-01-22T06:52:24.504Z,0.52
2023-01-22T06:54:52.566Z,0.20
2023-01-22T06:57:21.966Z,0.35
2023-01-22T06:59:49.975Z,0.25
2023-01-22T07:02:18.951Z,0.08
2023-01-22T07:04:47.044Z,1.23
2023-01-22T07:07:15.209Z,1.90
2023-01-22T07:09:43.145Z,0.40
2023-01-22T07:12:11.055Z,0.10
2023-01-22T07:14:40.775Z,0.35
2023-01-22T07:17:08.750Z,0.35
2023-01-22T07:19:36.759Z,0.85
2023-01-22T07:22:04.537Z,0.95
2023-01-22T07:24:32.475Z,1.08
2023-01-22T07:27:02.274Z,0.88
2023-01-22T07:29:30.535Z,0.85
2023-01-22T07:32:00.071Z,0.60
2023-01-22T07:34:28.094Z,1.83
2023-01-22T07:36:55.870Z,0.82
2023-01-22T07:39:23.865Z,1.58
2023-01-22T07:41:51.733Z,0.52
2023-01-22T07:44:19.742Z,1.05
2023-01-22T07:46:47.576Z,0.73
2023-01-22T07:49:17.061Z,0.43
2023-01-22T07:51:44.830Z,1.10
2023-01-22T07:54:12.693Z,0.85
2023-01-22T07:56:40.591Z,1.20
2023-01-22T07:59:08.460Z,1.30
2023-01-22T08:01:36.491Z,0.60
2023-01-22T08:04:04.544Z,0.50
2023-01-22T08:06:34.356Z,0.82
2023-01-22T08:09:02.938Z,1.00
2023-01-22T08:11:30.630Z,0.40
2023-01-22T08:13:58.567Z,0.80
2023-01-22T08:16:26.280Z,0.88
2023-01-22T08:18:54.211Z,0.35
2023-01-22T08:21:22.259Z,1.02
2023-01-22T08:23:51.649Z,0.47
2023-01-22T08:26:19.329Z,0.32
2023-01-22T08:28:47.062Z,0.65
2023-01-22T08:31:26.860Z,0.43
2023-01-22T08:33:55.361Z,0.43
2023-01-22T08:36:23.475Z,1.00
2023-01-22T08:38:52.853Z,0.13
2023-01-22T08:41:20.690Z,0.65
2023-01-22T08:43:48.557Z,0.63
2023-01-22T08:46:16.243Z,0.50
2023-01-22T08:48:44.511Z,0.57
2023-01-22T08:51:12.873Z,0.82
2023-01-22T08:53:40.878Z,0.43
2023-01-22T08:56:10.496Z,0.60
2023-01-22T08:58:38.416Z,0.10
2023-01-22T09:01:06.573Z,0.40
2023-01-22T09:03:34.457Z,0.50
2023-01-22T09:06:08.597Z,0.20
2023-01-22T09:08:36.699Z,0.40
2023-01-22T09:11:04.875Z,0.15
2023-01-22T09:13:34.347Z,0.73
2023-01-22T09:16:02.417Z,0.65
2023-01-22T09:18:30.684Z,0.45
2023-01-22T09:20:59.830Z,0.40
2023-01-22T09:23:27.917Z,0.73
2023-01-22T09:25:55.829Z,1.15
2023-01-22T09:28:23.986Z,0.98
2023-01-22T09:30:53.574Z,1.50
2023-01-22T09:33:21.803Z,1.30
2023-01-22T09:35:49.983Z,2.75
2023-01-22T09:38:21.774Z,2.65
2023-01-22T09:40:55.288Z,1.30
2023-01-22T09:43:31.175Z,1.65
2023-01-22T09:46:04.411Z,1.23
2023-01-22T09:48:37.789Z,1.85
2023-01-22T09:51:06.901Z,1.60
2023-01-22T09:53:35.498Z,1.67
2023-01-22T09:56:08.109Z,1.80
2023-01-22T09:58:36.933Z,1.42
2023-01-22T10:01:07.819Z,1.23
2023-01-22T10:03:41.441Z,3.33
2023-01-22T10:06:13.169Z,1.30
2023-01-22T10:08:55.103Z,0.82
2023-01-22T10:11:23.381Z,0.85
2023-01-22T10:13:54.968Z,0.70
2023-01-22T10:16:24.785Z,1.10
2023-01-22T10:18:56.865Z,1.70
2023-01-22T10:21:27.261Z,0.50
2023-01-22T10:23:58.335Z,1.10
2023-01-22T10:26:33.601Z,0.63
2023-01-22T10:29:06.291Z,1.63
2023-01-22T10:31:38.554Z,1.05
2023-01-22T10:34:15.254Z,2.55
2023-01-22T10:39:17.951Z,1.98
2023-01-22T10:41:48.049Z,1.00
2023-01-22T10:44:22.056Z,2.40
2023-01-22T10:46:53.045Z,2.38
2023-01-22T10:49:22.519Z,2.05
2023-01-22T10:51:54.233Z,2.25
2023-01-22T10:54:28.232Z,2.10
2023-01-22T10:57:05.936Z,1.75
2023-01-22T10:59:34.949Z,1.60
2023-01-22T11:02:23.901Z,2.28
2023-01-22T11:04:52.679Z,2.22
2023-01-22T11:07:24.239Z,2.35
2023-01-22T11:09:58.568Z,1.23
2023-01-22T11:12:30.037Z,4.88
2023-01-22T11:15:05.681Z,1.85
2023-01-22T11:17:39.374Z,2.03
2023-01-22T11:20:20.968Z,4.32
2023-01-22T11:23:01.802Z,3.60
2023-01-22T11:25:37.784Z,2.13
2023-01-22T11:28:14.283Z,3.20
2023-01-22T11:34:06.700Z,3.17
2023-01-22T11:36:40.940Z,5.53
2023-01-22T11:39:19.049Z,5.40
2023-01-22T11:42:00.299Z,2.65
2023-01-22T11:44:56.180Z,2.00
2023-01-22T11:47:50.533Z,2.45
2023-01-22T11:50:27.853Z,1.98
2023-01-22T11:53:13.917Z,2.28
2023-01-22T11:56:04.460Z,3.08
2023-01-22T11:58:39.081Z,2.45
2023-01-22T12:01:18.941Z,4.97
2023-01-22T12:04:16.886Z,5.13
2023-01-22T12:07:19.668Z,3.28
2023-01-22T12:09:55.878Z,3.28
2023-01-22T12:12:35.891Z,2.55
2023-01-22T12:15:26.916Z,2.70
2023-01-22T12:18:08.393Z,3.67
2023-01-22T12:20:49.647Z,2.97
2023-01-22T12:23:25.346Z,3.67
2023-01-22T12:25:57.896Z,3.67
2023-01-22T12:28:31.358Z,3.42
2023-01-22T12:31:03.165Z,4.25
2023-01-22T12:33:35.269Z,4.03
2023-01-22T12:36:06.093Z,3.08
2023-01-22T12:38:42.824Z,2.47
2023-01-22T12:41:26.214Z,2.63
2023-01-22T12:43:57.560Z,2.03
2023-01-22T12:46:33.447Z,1.65
2023-01-22T12:49:07.586Z,4.55
2023-01-22T12:51:39.623Z,2.13
2023-01-22T12:54:32.586Z,3.55
2023-01-22T12:57:12.609Z,2.33
2023-01-22T12:59:46.377Z,2.40
2023-01-22T13:02:38.222Z,1.85
2023-01-22T13:05:40.269Z,1.77
2023-01-22T13:08:27.482Z,1.92
2023-01-22T13:10:59.835Z,3.70
2023-01-22T13:13:32.284Z,2.53
2023-01-22T13:16:04.003Z,2.00
2023-01-22T13:18:39.873Z,1.67
2023-01-22T13:21:09.892Z,1.17
2023-01-22T13:23:44.416Z,1.48
2023-01-22T13:26:19.710Z,1.90
2023-01-22T13:28:53.439Z,3.40
2023-01-22T13:31:21.867Z,2.28
2023-01-22T13:33:55.001Z,2.47
2023-01-22T13:36:23.778Z,2.00
2023-01-22T13:38:53.763Z,1.55
2023-01-22T13:41:29.602Z,1.15
2023-01-22T13:43:58.283Z,1.73
2023-01-22T13:46:28.996Z,1.40
2023-01-22T13:49:07.262Z,1.88
2023-01-22T13:51:36.675Z,2.10
2023-01-22T13:54:06.336Z,1.80
2023-01-22T13:56:36.081Z,1.70
2023-01-22T13:59:17.707Z,1.35
2023-01-22T14:01:46.569Z,4.03
2023-01-22T14:04:34.801Z,1.08
2023-01-22T14:07:03.590Z,0.90
2023-01-22T14:09:33.249Z,1.48
2023-01-22T14:12:14.842Z,1.65
2023-01-22T14:14:43.673Z,1.13
2023-01-22T14:17:22.100Z,1.65
2023-01-22T14:19:50.569Z,1.88
2023-01-22T14:22:18.919Z,1.13
2023-01-22T14:24:47.890Z,1.67
2023-01-22T14:27:17.539Z,1.85
2023-01-22T14:29:45.720Z,1.02
2023-01-22T14:32:13.776Z,0.75
2023-01-22T14:34:42.130Z,1.40
2023-01-22T14:37:10.143Z,1.45
2023-01-22T14:39:38.437Z,1.58
2023-01-22T14:42:06.412Z,1.40
2023-01-22T14:44:36.586Z,1.65
2023-01-22T14:47:05.068Z,1.40
2023-01-22T14:49:33.846Z,0.55
2023-01-22T14:52:02.002Z,1.42
2023-01-22T14:54:30.135Z,2.67
2023-01-22T14:56:59.887Z,1.77
2023-01-22T14:59:28.127Z,1.25
2023-01-22T15:01:58.074Z,2.05
2023-01-22T15:04:26.378Z,1.95
2023-01-22T15:06:54.473Z,1.10
2023-01-22T15:09:22.614Z,2.03
2023-01-22T15:11:50.805Z,2.15
2023-01-22T15:14:18.898Z,1.65
2023-01-22T15:16:47.233Z,1.25
2023-01-22T15:19:18.466Z,0.80
2023-01-22T15:21:48.615Z,1.48
2023-01-22T15:24:16.831Z,1.40
2023-01-22T15:26:45.163Z,1.27
2023-01-22T15:29:14.694Z,1.77
2023-01-22T15:31:43.343Z,2.00
2023-01-22T15:34:11.774Z,2.65
2023-01-22T15:36:41.438Z,0.93
2023-01-22T15:39:09.563Z,2.40
2023-01-22T15:41:38.345Z,3.90
2023-01-22T15:44:07.242Z,4.80
2023-01-22T15:46:38.337Z,2.67
2023-01-22T15:49:12.580Z,2.15
2023-01-22T15:51:42.584Z,2.22
2023-01-22T15:54:15.504Z,3.08
2023-01-22T15:56:44.031Z,1.67
2023-01-22T15:59:12.963Z,2.30
2023-01-22T16:01:41.363Z,2.28
2023-01-22T16:04:10.035Z,3.22
2023-01-22T16:06:38.534Z,6.57
2023-01-22T16:09:08.400Z,5.88
2023-01-22T16:11:36.880Z,4.47
2023-01-22T16:14:05.039Z,4.63
2023-01-22T16:16:36.667Z,3.92
2023-01-22T16:19:07.498Z,2.67
2023-01-22T16:21:36.165Z,2.00
2023-01-22T16:24:05.578Z,2.42
2023-01-22T16:26:35.939Z,1.10
2023-01-22T16:29:11.808Z,2.17
2023-01-22T16:31:40.246Z,1.70
2023-01-22T16:34:10.443Z,2.30
2023-01-22T16:36:39.997Z,2.08
2023-01-22T16:39:08.819Z,1.85
2023-01-22T16:41:38.428Z,3.75
2023-01-22T16:44:09.680Z,2.08
2023-01-22T16:46:40.517Z,2.05
2023-01-22T16:49:14.869Z,4.00
2023-01-22T16:51:45.765Z,2.20
2023-01-22T16:54:20.529Z,2.85
2023-01-22T16:56:51.158Z,4.60
2023-01-22T16:59:19.654Z,3.83
2023-01-22T17:01:48.693Z,3.80
2023-01-22T17:04:17.493Z,3.33
2023-01-22T17:06:47.552Z,3.28
2023-01-22T17:09:18.169Z,3.00
2023-01-22T17:11:51.311Z,4.57
2023-01-22T17:14:21.609Z,4.10
2023-01-22T17:16:50.660Z,4.72
2023-01-22T17:19:19.954Z,4.80
2023-01-22T17:21:51.022Z,4.95
2023-01-22T17:24:19.303Z,4.72
2023-01-22T17:26:48.218Z,8.32
2023-01-22T17:29:17.888Z,7.32
2023-01-22T17:31:46.233Z,8.48
2023-01-22T17:34:14.464Z,6.93
2023-01-22T17:36:42.934Z,17.85
2023-01-22T17:39:15.980Z,16.10
2023-01-22T17:41:44.461Z,15.30
2023-01-22T17:44:12.859Z,21.65
2023-01-22T17:46:43.001Z,20.67
2023-01-22T17:49:11.529Z,15.32
2023-01-22T17:51:39.474Z,13.25
2023-01-22T17:54:08.104Z,17.20
2023-01-22T17:56:38.167Z,11.95
2023-01-22T17:59:07.732Z,10.32
2023-01-22T18:01:37.003Z,11.35
2023-01-22T18:04:14.111Z,8.43
2023-01-22T18:06:43.905Z,9.23
2023-01-22T18:09:12.774Z,8.93
2023-01-22T18:11:42.339Z,10.43
2023-01-22T18:14:12.393Z,10.98
2023-01-22T18:16:41.170Z,10.18
2023-01-22T18:19:09.283Z,7.63
2023-01-22T18:21:40.430Z,7.15
2023-01-22T18:24:11.351Z,7.68
2023-01-22T18:26:39.654Z,7.40
2023-01-22T18:29:08.111Z,5.97
2023-01-22T18:31:36.473Z,4.05
2023-01-22T18:34:06.081Z,5.78
2023-01-22T18:36:35.414Z,5.78
2023-01-22T18:39:07.787Z,6.20
2023-01-22T18:41:36.610Z,6.93
2023-01-22T18:44:04.959Z,4.78
2023-01-22T18:46:34.600Z,4.85
2023-01-22T18:49:04.922Z,5.03
2023-01-22T18:51:34.078Z,4.53
2023-01-22T18:54:05.308Z,4.82
2023-01-22T18:56:33.826Z,5.07
2023-01-22T18:59:01.911Z,7.15
2023-01-22T19:01:31.586Z,12.20
2023-01-22T19:04:01.115Z,11.65
2023-01-22T19:06:31.110Z,11.32
2023-01-22T19:09:03.001Z,9.05
2023-01-22T19:11:34.222Z,10.65
2023-01-22T19:14:05.893Z,9.02
2023-01-22T19:16:45.009Z,6.82
2023-01-22T19:19:13.863Z,4.85
2023-01-22T19:21:47.377Z,4.78
2023-01-22T19:24:18.268Z,3.88
2023-01-22T19:26:49.759Z,3.90
2023-01-22T19:29:19.315Z,5.05
2023-01-22T19:31:52.136Z,3.47
2023-01-22T19:34:25.246Z,3.33
2023-01-22T19:36:55.700Z,3.15
2023-01-22T19:39:28.102Z,2.17
2023-01-22T19:42:01.983Z,3.10
2023-01-22T19:44:30.700Z,2.50
2023-01-22T19:46:58.812Z,3.03
2023-01-22T19:49:26.906Z,3.83
2023-01-22T19:51:55.451Z,3.65
2023-01-22T19:54:24.812Z,3.63
2023-01-22T19:56:53.428Z,2.30
2023-01-22T19:59:25.882Z,2.08
2023-01-22T20:01:54.097Z,3.25
2023-01-22T20:04:24.273Z,5.07
2023-01-22T20:06:56.907Z,3.55
2023-01-22T20:09:28.204Z,3.55
2023-01-22T20:11:58.368Z,3.65
2023-01-22T20:14:30.919Z,3.20
2023-01-22T20:16:59.766Z,2.83
2023-01-22T20:19:28.244Z,2.00
2023-01-22T20:21:56.901Z,4.45
2023-01-22T20:24:25.052Z,1.70
2023-01-22T20:26:55.754Z,3.13
2023-01-22T20:29:23.874Z,1.55
2023-01-22T20:31:55.075Z,1.52
2023-01-22T20:34:23.481Z,3.50
2023-01-22T20:36:51.773Z,4.95
2023-01-22T20:39:20.065Z,5.55
2023-01-22T20:41:48.322Z,4.75
2023-01-22T20:44:16.861Z,3.05
2023-01-22T20:46:45.000Z,3.33
2023-01-22T20:49:15.119Z,1.73
2023-01-22T20:51:43.325Z,2.72
2023-01-22T20:54:11.800Z,2.35
2023-01-22T20:56:39.958Z,2.72
2023-01-22T20:59:11.511Z,3.33
2023-01-22T21:01:40.021Z,2.83
2023-01-22T21:04:08.264Z,4.38
2023-01-22T21:06:39.695Z,4.13
2023-01-22T21:09:10.407Z,4.65
2023-01-22T21:11:40.229Z,2.28
2023-01-22T21:14:10.761Z,4.60
2023-01-22T21:16:40.338Z,3.35
2023-01-22T21:19:14.556Z,3.05
2023-01-22T21:21:44.505Z,3.90
2023-01-22T21:24:12.815Z,2.90
2023-01-22T21:26:40.969Z,3.63
2023-01-22T21:29:12.863Z,3.08
2023-01-22T21:31:41.329Z,5.18
2023-01-22T21:34:11.260Z,2.60
2023-01-22T21:36:40.706Z,2.40
2023-01-22T21:39:14.436Z,3.20
2023-01-22T21:41:43.717Z,3.10
2023-01-22T21:44:31.812Z,1.67
2023-01-22T21:47:00.231Z,2.55
2023-01-22T21:49:28.607Z,2.08
2023-01-22T21:51:59.088Z,2.45
2023-01-22T21:54:33.189Z,2.13
2023-01-22T21:57:01.689Z,2.63
2023-01-22T21:59:29.698Z,1.77
2023-01-22T22:01:58.077Z,2.50
2023-01-22T22:04:27.836Z,4.10
2023-01-22T22:06:57.302Z,8.80
2023-01-22T22:09:28.866Z,13.00
2023-01-22T22:11:59.030Z,8.98
2023-01-22T22:14:28.464Z,10.20
2023-01-22T22:16:56.466Z,8.25
2023-01-22T22:19:26.388Z,8.07
2023-01-22T22:21:54.312Z,7.82
2023-01-22T22:24:22.399Z,5.40
2023-01-22T22:26:51.917Z,4.25
2023-01-22T22:29:20.107Z,2.92
2023-01-22T22:31:48.454Z,4.68
2023-01-22T22:34:16.379Z,2.70
2023-01-22T22:36:44.200Z,4.25
2023-01-22T22:39:12.005Z,3.35
2023-01-22T22:41:40.046Z,5.40
2023-01-22T22:44:10.599Z,5.18
2023-01-22T22:46:39.666Z,5.28
2023-01-22T22:49:07.599Z,4.43
2023-01-22T22:51:36.401Z,2.75
2023-01-22T22:54:07.850Z,3.05
2023-01-22T22:56:35.685Z,2.53
2023-01-22T22:59:04.228Z,2.45
2023-01-22T23:01:33.880Z,2.20
2023-01-22T23:04:01.851Z,1.42
2023-01-22T23:06:33.877Z,2.05
2023-01-22T23:09:11.675Z,2.25
2023-01-22T23:11:39.988Z,1.48
2023-01-22T23:14:08.750Z,3.90
2023-01-22T23:16:39.880Z,3.15
2023-01-22T23:19:12.000Z,3.10
2023-01-22T23:21:42.981Z,3.67
2023-01-22T23:24:12.005Z,3.15
2023-01-22T23:26:41.131Z,3.13
2023-01-22T23:29:11.230Z,2.13
2023-01-22T23:31:41.009Z,2.50
2023-01-22T23:34:13.056Z,2.05
2023-01-22T23:36:43.785Z,2.17
2023-01-22T23:39:12.295Z,3.45
2023-01-22T23:41:39.893Z,1.90
2023-01-22T23:44:07.542Z,1.58
2023-01-22T23:46:36.665Z,1.20
2023-01-22T23:49:05.997Z,2.45
2023-01-22T23:51:34.007Z,3.10
2023-01-22T23:54:01.720Z,2.78
2023-01-22T23:56:32.749Z,1.05
2023-01-22T23:59:00.751Z,2.70
